sensor_id;sensor_type;location;lat;lon;timestamp;P1;durP1;ratioP1;P2;durP2;ratioP2
40588;SDS011;26297;49.450;6.640;2023-04-07T00:17:29;5.20;;;3.58;;
40588;SDS011;26297;49.450;6.640;2023-04-07T00:43:48;3.63;;;3.23;;
40588;SDS011;26297;49.450;6.640;2023-04-07T00:47:06;4.28;;;3.40;;
40588;SDS011;26297;49.450;6.640;2023-04-07T00:50:19;5.28;;;3.70;;
40588;SDS011;26297;49.450;6.640;2023-04-07T00:53:34;4.38;;;3.25;;
40588;SDS011;26297;49.450;6.640;2023-04-07T00:57:13;4.65;;;3.40;;
40588;SDS011;26297;49.450;6.640;2023-04-07T01:00:26;4.30;;;3.47;;
40588;SDS011;26297;49.450;6.640;2023-04-07T01:03:32;3.95;;;2.92;;
40588;SDS011;26297;49.450;6.640;2023-04-07T01:10:55;4.40;;;3.28;;
40588;SDS011;26297;49.450;6.640;2023-04-07T01:17:17;4.93;;;3.67;;
40588;SDS011;26297;49.450;6.640;2023-04-07T01:20:29;8.30;;;4.53;;
40588;SDS011;26297;49.450;6.640;2023-04-07T01:26:50;4.45;;;3.33;;
40588;SDS011;26297;49.450;6.640;2023-04-07T01:30:02;3.70;;;3.05;;
40588;SDS011;26297;49.450;6.640;2023-04-07T01:33:32;3.95;;;3.47;;
40588;SDS011;26297;49.450;6.640;2023-04-07T01:36:48;5.72;;;3.67;;
40588;SDS011;26297;49.450;6.640;2023-04-07T01:39:59;6.72;;;3.47;;
40588;SDS011;26297;49.450;6.640;2023-04-07T01:43:13;4.68;;;3.83;;
40588;SDS011;26297;49.450;6.640;2023-04-07T02:08:51;9.97;;;5.90;;
40588;SDS011;26297;49.450;6.640;2023-04-07T03:01:04;4.53;;;3.90;;
40588;SDS011;26297;49.450;6.640;2023-04-07T03:04:20;5.00;;;4.30;;
40588;SDS011;26297;49.450;6.640;2023-04-07T03:10:44;5.55;;;4.40;;
40588;SDS011;26297;49.450;6.640;2023-04-07T03:14:06;5.18;;;4.05;;
40588;SDS011;26297;49.450;6.640;2023-04-07T03:17:21;4.88;;;3.45;;
40588;SDS011;26297;49.450;6.640;2023-04-07T03:20:31;6.40;;;4.82;;
40588;SDS011;26297;49.450;6.640;2023-04-07T03:27:39;5.75;;;4.45;;
40588;SDS011;26297;49.450;6.640;2023-04-07T03:39:56;5.63;;;3.70;;
40588;SDS011;26297;49.450;6.640;2023-04-07T03:43:06;5.65;;;4.30;;
40588;SDS011;26297;49.450;6.640;2023-04-07T03:46:25;5.23;;;4.57;;
40588;SDS011;26297;49.450;6.640;2023-04-07T03:56:25;5.47;;;3.53;;
40588;SDS011;26297;49.450;6.640;2023-04-07T03:59:49;4.35;;;3.00;;
40588;SDS011;26297;49.450;6.640;2023-04-07T04:03:22;4.55;;;2.90;;
40588;SDS011;26297;49.450;6.640;2023-04-07T04:07:04;2.85;;;2.38;;
40588;SDS011;26297;49.450;6.640;2023-04-07T04:30:05;4.67;;;2.90;;
40588;SDS011;26297;49.450;6.640;2023-04-07T04:33:24;3.80;;;3.08;;
40588;SDS011;26297;49.450;6.640;2023-04-07T04:40:38;4.28;;;3.33;;
40588;SDS011;26297;49.450;6.640;2023-04-07T04:44:01;3.42;;;2.83;;
40588;SDS011;26297;49.450;6.640;2023-04-07T04:47:01;5.10;;;3.70;;
40588;SDS011;26297;49.450;6.640;2023-04-07T04:58:52;6.07;;;2.92;;
40588;SDS011;26297;49.450;6.640;2023-04-07T05:02:26;4.10;;;3.10;;
40588;SDS011;26297;49.450;6.640;2023-04-07T05:09:23;4.78;;;2.95;;
40588;SDS011;26297;49.450;6.640;2023-04-07T05:13:03;5.28;;;3.10;;
40588;SDS011;26297;49.450;6.640;2023-04-07T05:19:03;5.33;;;3.50;;
40588;SDS011;26297;49.450;6.640;2023-04-07T05:22:15;7.05;;;3.45;;
40588;SDS011;26297;49.450;6.640;2023-04-07T05:34:26;5.20;;;4.03;;
40588;SDS011;26297;49.450;6.640;2023-04-07T05:41:24;5.45;;;4.03;;
40588;SDS011;26297;49.450;6.640;2023-04-07T05:44:36;4.93;;;3.85;;
40588;SDS011;26297;49.450;6.640;2023-04-07T05:48:01;6.13;;;4.40;;
40588;SDS011;26297;49.450;6.640;2023-04-07T05:51:17;7.07;;;4.45;;
40588;SDS011;26297;49.450;6.640;2023-04-07T05:54:31;5.72;;;4.35;;
40588;SDS011;26297;49.450;6.640;2023-04-07T05:57:44;5.35;;;4.20;;
40588;SDS011;26297;49.450;6.640;2023-04-07T06:00:57;5.57;;;3.80;;
40588;SDS011;26297;49.450;6.640;2023-04-07T06:04:07;5.68;;;4.20;;
40588;SDS011;26297;49.450;6.640;2023-04-07T06:10:17;7.28;;;4.63;;
40588;SDS011;26297;49.450;6.640;2023-04-07T06:13:24;6.82;;;4.88;;
40588;SDS011;26297;49.450;6.640;2023-04-07T06:16:33;6.63;;;4.57;;
40588;SDS011;26297;49.450;6.640;2023-04-07T06:19:46;6.15;;;4.75;;
40588;SDS011;26297;49.450;6.640;2023-04-07T06:23:07;6.25;;;4.68;;
40588;SDS011;26297;49.450;6.640;2023-04-07T06:26:22;6.32;;;5.05;;
40588;SDS011;26297;49.450;6.640;2023-04-07T06:30:05;8.15;;;4.57;;
40588;SDS011;26297;49.450;6.640;2023-04-07T06:36:13;7.90;;;5.38;;
40588;SDS011;26297;49.450;6.640;2023-04-07T06:43:52;7.57;;;5.35;;
40588;SDS011;26297;49.450;6.640;2023-04-07T06:47:09;10.27;;;5.60;;
40588;SDS011;26297;49.450;6.640;2023-04-07T06:57:02;5.87;;;4.33;;
40588;SDS011;26297;49.450;6.640;2023-04-07T07:00:37;7.82;;;4.70;;
40588;SDS011;26297;49.450;6.640;2023-04-07T07:04:18;8.30;;;4.78;;
40588;SDS011;26297;49.450;6.640;2023-04-07T07:08:15;6.35;;;4.45;;
40588;SDS011;26297;49.450;6.640;2023-04-07T07:11:32;8.60;;;5.38;;
40588;SDS011;26297;49.450;6.640;2023-04-07T07:14:50;6.38;;;5.05;;
40588;SDS011;26297;49.450;6.640;2023-04-07T07:18:26;6.20;;;4.25;;
40588;SDS011;26297;49.450;6.640;2023-04-07T07:22:04;4.65;;;3.97;;
40588;SDS011;26297;49.450;6.640;2023-04-07T07:28:36;8.20;;;4.43;;
40588;SDS011;26297;49.450;6.640;2023-04-07T07:31:59;8.15;;;4.40;;
40588;SDS011;26297;49.450;6.640;2023-04-07T07:35:31;10.02;;;8.35;;
40588;SDS011;26297;49.450;6.640;2023-04-07T07:39:09;6.75;;;4.20;;
40588;SDS011;26297;49.450;6.640;2023-04-07T07:42:37;6.45;;;4.15;;
40588;SDS011;26297;49.450;6.640;2023-04-07T07:46:13;8.40;;;3.88;;
40588;SDS011;26297;49.450;6.640;2023-04-07T07:49:48;7.90;;;3.90;;
40588;SDS011;26297;49.450;6.640;2023-04-07T07:53:39;7.20;;;4.10;;
40588;SDS011;26297;49.450;6.640;2023-04-07T07:57:10;7.82;;;3.45;;
40588;SDS011;26297;49.450;6.640;2023-04-07T08:00:41;5.75;;;4.07;;
40588;SDS011;26297;49.450;6.640;2023-04-07T08:40:45;4.90;;;2.77;;
40588;SDS011;26297;49.450;6.640;2023-04-07T08:52:54;6.00;;;2.87;;
40588;SDS011;26297;49.450;6.640;2023-04-07T08:56:17;5.65;;;2.70;;
40588;SDS011;26297;49.450;6.640;2023-04-07T08:59:47;3.83;;;2.10;;
40588;SDS011;26297;49.450;6.640;2023-04-07T09:03:29;3.92;;;3.17;;
40588;SDS011;26297;49.450;6.640;2023-04-07T09:06:36;5.88;;;3.75;;
40588;SDS011;26297;49.450;6.640;2023-04-07T09:15:49;4.70;;;2.27;;
40588;SDS011;26297;49.450;6.640;2023-04-07T09:19:33;4.97;;;2.80;;
40588;SDS011;26297;49.450;6.640;2023-04-07T09:23:02;3.50;;;3.00;;
40588;SDS011;26297;49.450;6.640;2023-04-07T09:45:22;8.30;;;2.88;;
40588;SDS011;26297;49.450;6.640;2023-04-07T09:49:14;4.00;;;2.47;;
40588;SDS011;26297;49.450;6.640;2023-04-07T09:59:29;2.28;;;2.03;;
40588;SDS011;26297;49.450;6.640;2023-04-07T10:19:04;2.63;;;2.00;;
40588;SDS011;26297;49.450;6.640;2023-04-07T12:36:45;3.83;;;2.85;;
40588;SDS011;26297;49.450;6.640;2023-04-07T13:01:39;5.80;;;3.13;;
40588;SDS011;26297;49.450;6.640;2023-04-07T13:51:41;5.75;;;2.53;;
40588;SDS011;26297;49.450;6.640;2023-04-07T17:48:02;1.08;;;0.98;;
40588;SDS011;26297;49.450;6.640;2023-04-07T17:51:13;2.63;;;1.27;;
40588;SDS011;26297;49.450;6.640;2023-04-07T18:17:05;1.70;;;1.20;;
40588;SDS011;26297;49.450;6.640;2023-04-07T18:20:09;1.73;;;1.25;;
40588;SDS011;26297;49.450;6.640;2023-04-07T18:23:12;2.65;;;1.10;;
40588;SDS011;26297;49.450;6.640;2023-04-07T18:26:19;1.38;;;1.10;;
40588;SDS011;26297;49.450;6.640;2023-04-07T18:29:27;1.35;;;0.93;;
40588;SDS011;26297;49.450;6.640;2023-04-07T18:32:31;1.10;;;0.82;;
40588;SDS011;26297;49.450;6.640;2023-04-07T18:35:34;1.48;;;1.10;;
40588;SDS011;26297;49.450;6.640;2023-04-07T18:38:40;3.13;;;1.08;;
40588;SDS011;26297;49.450;6.640;2023-04-07T18:41:43;1.90;;;1.30;;
40588;SDS011;26297;49.450;6.640;2023-04-07T18:44:48;2.22;;;0.60;;
40588;SDS011;26297;49.450;6.640;2023-04-07T18:47:51;1.13;;;1.02;;
40588;SDS011;26297;49.450;6.640;2023-04-07T18:50:54;0.95;;;0.90;;
40588;SDS011;26297;49.450;6.640;2023-04-07T18:56:49;1.05;;;0.93;;
40588;SDS011;26297;49.450;6.640;2023-04-07T18:59:55;1.48;;;0.90;;
40588;SDS011;26297;49.450;6.640;2023-04-07T19:03:01;1.27;;;1.17;;
40588;SDS011;26297;49.450;6.640;2023-04-07T19:06:07;1.65;;;0.88;;
40588;SDS011;26297;49.450;6.640;2023-04-07T19:09:10;1.02;;;0.80;;
40588;SDS011;26297;49.450;6.640;2023-04-07T19:12:13;2.63;;;1.00;;
40588;SDS011;26297;49.450;6.640;2023-04-07T19:15:17;1.45;;;0.90;;
40588;SDS011;26297;49.450;6.640;2023-04-07T19:18:20;0.70;;;0.70;;
40588;SDS011;26297;49.450;6.640;2023-04-07T19:21:24;2.33;;;0.95;;
40588;SDS011;26297;49.450;6.640;2023-04-07T19:24:35;1.98;;;1.10;;
40588;SDS011;26297;49.450;6.640;2023-04-07T19:27:47;1.63;;;1.00;;
40588;SDS011;26297;49.450;6.640;2023-04-07T19:30:50;1.48;;;1.05;;
40588;SDS011;26297;49.450;6.640;2023-04-07T19:33:57;1.95;;;0.95;;
40588;SDS011;26297;49.450;6.640;2023-04-07T19:37:06;1.73;;;1.00;;
40588;SDS011;26297;49.450;6.640;2023-04-07T19:40:19;2.97;;;1.15;;
40588;SDS011;26297;49.450;6.640;2023-04-07T19:43:22;0.85;;;0.75;;
40588;SDS011;26297;49.450;6.640;2023-04-07T19:46:25;2.00;;;0.90;;
40588;SDS011;26297;49.450;6.640;2023-04-07T19:49:29;2.33;;;0.70;;
40588;SDS011;26297;49.450;6.640;2023-04-07T19:52:32;1.75;;;1.15;;
40588;SDS011;26297;49.450;6.640;2023-04-07T19:55:39;2.63;;;0.80;;
40588;SDS011;26297;49.450;6.640;2023-04-07T19:58:58;2.75;;;1.20;;
40588;SDS011;26297;49.450;6.640;2023-04-07T20:02:02;2.47;;;1.00;;
40588;SDS011;26297;49.450;6.640;2023-04-07T20:05:05;0.85;;;0.85;;
40588;SDS011;26297;49.450;6.640;2023-04-07T20:08:08;1.40;;;1.20;;
40588;SDS011;26297;49.450;6.640;2023-04-07T20:11:13;1.40;;;0.82;;
40588;SDS011;26297;49.450;6.640;2023-04-07T20:14:16;1.00;;;0.95;;
40588;SDS011;26297;49.450;6.640;2023-04-07T20:17:20;1.98;;;1.10;;
40588;SDS011;26297;49.450;6.640;2023-04-07T20:20:23;2.63;;;1.00;;
40588;SDS011;26297;49.450;6.640;2023-04-07T20:23:30;0.98;;;0.90;;
40588;SDS011;26297;49.450;6.640;2023-04-07T20:26:34;1.42;;;1.00;;
40588;SDS011;26297;49.450;6.640;2023-04-07T20:29:37;1.30;;;1.08;;
40588;SDS011;26297;49.450;6.640;2023-04-07T20:32:41;1.50;;;1.30;;
40588;SDS011;26297;49.450;6.640;2023-04-07T20:35:48;1.63;;;1.05;;
40588;SDS011;26297;49.450;6.640;2023-04-07T21:01:21;2.05;;;1.45;;
40588;SDS011;26297;49.450;6.640;2023-04-07T23:59:09;4.57;;;3.03;;
